Time;durP1;ratioP1;P1;durP2;ratioP2;P2;SDS_P1;SDS_P2;PMS_P1;PMS_P2;Temp;Humidity;BMP_temperature;BMP_pressure;BME280_temperature;BME280_humidity;BME280_pressure;Samples;Min_cycle;Max_cycle;Signal;HPM_P1;HPM_P2
2023/03/02 00:01:28;;;;;;;43.45;18.45;;;;;;;;;;8432069;28;20047;-80
2023/03/02 00:05:32;;;;;;;49.67;18.88;;;;;;;;;;8431426;28;20211;-77
2023/03/02 00:09:35;;;;;;;45.72;18.85;;;;;;;;;;8431645;28;20051;-78
2023/03/02 00:13:38;;;;;;;56.25;20.67;;;;;;;;;;8431625;28;20040;-78
2023/03/02 00:17:43;;;;;;;16.77;8.23;;;;;;;;;;8432967;28;20043;-79
2023/03/02 00:21:46;;;;;;;48.78;20.95;;;;;;;;;;8431797;28;20032;-77
2023/03/02 00:25:49;;;;;;;36.28;16.20;;;;;;;;;;8430677;28;20135;-80
2023/03/02 00:29:52;;;;;;;40.97;15.88;;;;;;;;;;8431178;28;20040;-79
2023/03/02 00:33:56;;;;;;;57.65;18.25;;;;;;;;;;8430641;28;20040;-80
2023/03/02 00:37:59;;;;;;;51.45;20.13;;;;;;;;;;8430688;28;20043;-81
2023/03/02 00:42:02;;;;;;;42.03;18.45;;;;;;;;;;8430846;28;20059;-77
2023/03/02 00:46:10;;;;;;;37.60;16.00;;;;;;;;;;8419872;28;20465;-78
2023/03/02 00:50:14;;;;;;;46.80;16.75;;;;;;;;;;8430872;28;20051;-78
2023/03/02 00:54:17;;;;;;;43.83;18.67;;;;;;;;;;8405997;28;20044;-79
2023/03/02 00:58:21;;;;;;;45.13;17.40;;;;;;;;;;8421090;28;20139;-78
2023/03/02 01:02:24;;;;;;;45.70;18.75;;;;;;;;;;8416948;28;20407;-80
2023/03/02 01:06:28;;;;;;;52.38;17.70;;;;;;;;;;8417216;28;20619;-78
2023/03/02 01:10:32;;;;;;;81.78;33.88;;;;;;;;;;8430560;28;20040;-77
2023/03/02 01:14:35;;;;;;;42.05;16.02;;;;;;;;;;8416170;28;20540;-78
2023/03/02 01:18:38;;;;;;;38.13;13.82;;;;;;;;;;8430030;28;20040;-78
2023/03/02 01:22:42;;;;;;;49.13;19.20;;;;;;;;;;8429899;28;20372;-77
2023/03/02 01:26:45;;;;;;;51.53;16.45;;;;;;;;;;8429897;28;20408;-79
2023/03/02 01:30:48;;;;;;;31.75;11.43;;;;;;;;;;8430184;28;20465;-81
2023/03/02 01:34:51;;;;;;;35.05;14.05;;;;;;;;;;8429956;28;20036;-79
2023/03/02 01:38:55;;;;;;;39.30;16.73;;;;;;;;;;8429703;28;20048;-78
2023/03/02 01:43:03;;;;;;;48.85;17.42;;;;;;;;;;8429265;28;20041;-76
2023/03/02 01:47:17;;;;;;;45.53;18.88;;;;;;;;;;8429106;28;20056;-81
2023/03/02 01:51:24;;;;;;;46.05;18.95;;;;;;;;;;8429971;28;20490;-78
2023/03/02 01:55:31;;;;;;;40.40;16.50;;;;;;;;;;8429161;28;20545;-79
2023/03/02 01:59:36;;;;;;;17.33;8.80;;;;;;;;;;8426768;28;20048;-79
2023/03/02 02:03:39;;;;;;;46.35;20.55;;;;;;;;;;8395282;28;20044;-76
2023/03/02 02:07:42;;;;;;;52.22;20.10;;;;;;;;;;8409716;28;20494;-83
2023/03/02 02:11:47;;;;;;;58.92;22.77;;;;;;;;;;8419024;28;20040;-77
2023/03/02 02:15:51;;;;;;;42.90;17.50;;;;;;;;;;8430678;28;20411;-78
2023/03/02 02:20:06;;;;;;;41.40;18.05;;;;;;;;;;8424877;28;20050;-87
2023/03/02 02:24:12;;;;;;;59.22;21.05;;;;;;;;;;8422141;28;20040;-81
2023/03/02 02:28:21;;;;;;;56.05;21.13;;;;;;;;;;8432448;28;20503;-79
2023/03/02 02:32:29;;;;;;;44.92;16.65;;;;;;;;;;8430538;28;20048;-82
2023/03/02 02:36:39;;;;;;;48.10;17.98;;;;;;;;;;8411151;28;20047;-79
2023/03/02 02:40:47;;;;;;;49.72;18.98;;;;;;;;;;8415230;28;20067;-80
2023/03/02 02:44:53;;;;;;;49.92;20.15;;;;;;;;;;8407299;28;20123;-79
2023/03/02 02:48:56;;;;;;;39.13;18.23;;;;;;;;;;8421737;28;20519;-80
2023/03/02 02:53:03;;;;;;;41.15;16.77;;;;;;;;;;8416307;28;20524;-79
2023/03/02 02:57:07;;;;;;;48.10;18.55;;;;;;;;;;8403646;28;20036;-78
2023/03/02 03:01:14;;;;;;;60.28;23.17;;;;;;;;;;8430277;28;20081;-78
2023/03/02 03:05:17;;;;;;;60.28;22.75;;;;;;;;;;8434448;28;20059;-77
2023/03/02 03:09:20;;;;;;;56.25;24.83;;;;;;;;;;8433641;28;20048;-78
2023/03/02 03:13:22;;;;;;;47.58;21.02;;;;;;;;;;8434275;28;20131;-77
2023/03/02 03:17:26;;;;;;;45.00;18.02;;;;;;;;;;8419844;28;20048;-78
2023/03/02 03:21:29;;;;;;;72.07;26.50;;;;;;;;;;8433087;28;20536;-80
2023/03/02 03:25:33;;;;;;;73.72;24.17;;;;;;;;;;8418642;28;20044;-78
2023/03/02 03:29:38;;;;;;;70.88;30.85;;;;;;;;;;8412694;28;20475;-80
2023/03/02 03:33:43;;;;;;;44.97;19.77;;;;;;;;;;8426978;28;20043;-81
2023/03/02 03:37:47;;;;;;;55.35;22.65;;;;;;;;;;8430875;28;20089;-78
2023/03/02 03:41:50;;;;;;;48.00;18.13;;;;;;;;;;8431852;28;20089;-79
2023/03/02 03:45:53;;;;;;;46.78;15.18;;;;;;;;;;8418402;28;20040;-79
2023/03/02 03:49:57;;;;;;;47.50;20.13;;;;;;;;;;8431333;28;20055;-78
2023/03/02 03:54:00;;;;;;;46.88;22.52;;;;;;;;;;8426721;28;20444;-79
2023/03/02 03:58:03;;;;;;;49.22;21.50;;;;;;;;;;8414688;28;20052;-84
2023/03/02 04:02:06;;;;;;;49.65;18.23;;;;;;;;;;8420677;28;20036;-78
2023/03/02 04:06:17;;;;;;;48.47;20.05;;;;;;;;;;8430397;28;20051;-80
2023/03/02 04:10:20;;;;;;;64.72;24.75;;;;;;;;;;8416538;28;20556;-78
2023/03/02 04:14:24;;;;;;;38.85;17.63;;;;;;;;;;8401095;28;20051;-76
2023/03/02 04:18:27;;;;;;;48.92;21.42;;;;;;;;;;8421110;28;20415;-78
2023/03/02 04:22:31;;;;;;;47.63;21.52;;;;;;;;;;8429390;28;20047;-78
2023/03/02 04:26:35;;;;;;;63.63;23.92;;;;;;;;;;8431532;28;20051;-78
2023/03/02 04:30:37;;;;;;;54.35;22.45;;;;;;;;;;8431325;28;20040;-78
2023/03/02 04:34:40;;;;;;;51.78;21.20;;;;;;;;;;8430954;28;20054;-76
2023/03/02 04:38:45;;;;;;;58.67;21.55;;;;;;;;;;8431173;28;20051;-79
2023/03/02 04:42:48;;;;;;;48.55;23.30;;;;;;;;;;8430824;28;20047;-80
2023/03/02 04:46:51;;;;;;;63.67;23.48;;;;;;;;;;8404644;28;20052;-77
2023/03/02 04:50:54;;;;;;;55.30;22.58;;;;;;;;;;8417232;28;20070;-76
2023/03/02 04:54:58;;;;;;;62.30;25.65;;;;;;;;;;8430789;28;20055;-80
2023/03/02 04:59:01;;;;;;;56.38;22.92;;;;;;;;;;8430613;28;20046;-78
2023/03/02 05:03:05;;;;;;;55.40;24.23;;;;;;;;;;8430163;28;20048;-80
2023/03/02 05:07:08;;;;;;;67.75;25.23;;;;;;;;;;8430236;28;20063;-78
2023/03/02 05:11:20;;;;;;;56.60;23.48;;;;;;;;;;8429899;28;20475;-80
2023/03/02 05:15:24;;;;;;;48.30;22.88;;;;;;;;;;8430074;28;20538;-79
2023/03/02 05:19:27;;;;;;;65.50;26.55;;;;;;;;;;8429468;28;20047;-79
2023/03/02 05:23:30;;;;;;;104.63;36.97;;;;;;;;;;8429439;28;20131;-79
2023/03/02 05:27:35;;;;;;;61.92;25.42;;;;;;;;;;8430083;28;20472;-78
2023/03/02 05:31:40;;;;;;;79.40;30.88;;;;;;;;;;8428843;28;20040;-78
2023/03/02 05:35:43;;;;;;;53.63;25.50;;;;;;;;;;8429452;28;20104;-82
2023/03/02 05:39:46;;;;;;;50.20;22.30;;;;;;;;;;8429466;28;20060;-79
2023/03/02 05:43:50;;;;;;;58.33;23.90;;;;;;;;;;8429044;28;20055;-79
2023/03/02 05:47:53;;;;;;;79.13;31.52;;;;;;;;;;8402228;28;20056;-79
2023/03/02 05:51:56;;;;;;;75.95;33.20;;;;;;;;;;8429371;28;20048;-81
2023/03/02 05:55:59;;;;;;;70.60;27.80;;;;;;;;;;8428728;28;20044;-84
2023/03/02 06:00:04;;;;;;;83.40;32.30;;;;;;;;;;8429005;28;20044;-83
2023/03/02 06:04:07;;;;;;;84.15;34.97;;;;;;;;;;8420081;28;20052;-81
2023/03/02 06:08:10;;;;;;;79.93;32.83;;;;;;;;;;8404579;28;20051;-83
2023/03/02 06:12:12;;;;;;;80.10;29.10;;;;;;;;;;8415208;28;20407;-80
2023/03/02 06:16:17;;;;;;;235.32;69.03;;;;;;;;;;8417739;28;20055;-79
2023/03/02 06:20:20;;;;;;;174.23;53.30;;;;;;;;;;8425242;28;20128;-78
2023/03/02 06:24:23;;;;;;;122.80;42.65;;;;;;;;;;8415999;28;20047;-79
2023/03/02 06:28:26;;;;;;;78.85;28.52;;;;;;;;;;8428339;28;20051;-81
2023/03/02 06:32:33;;;;;;;242.45;54.10;;;;;;;;;;8428282;28;20399;-80
2023/03/02 06:36:37;;;;;;;88.32;29.83;;;;;;;;;;8413254;28;20368;-81
2023/03/02 06:40:40;;;;;;;176.18;44.67;;;;;;;;;;8401994;28;20047;-91
2023/03/02 06:44:43;;;;;;;87.82;30.83;;;;;;;;;;8409267;28;20066;-81
2023/03/02 06:48:47;;;;;;;127.57;41.00;;;;;;;;;;8413577;28;20511;-79
2023/03/02 06:52:50;;;;;;;184.13;48.38;;;;;;;;;;8408358;28;20120;-78
2023/03/02 06:56:55;;;;;;;95.47;38.88;;;;;;;;;;8408152;28;20139;-79
2023/03/02 07:00:58;;;;;;;77.38;32.65;;;;;;;;;;8404816;28;20032;-80
2023/03/02 07:05:03;;;;;;;87.80;37.53;;;;;;;;;;8406849;28;20445;-79
2023/03/02 07:09:06;;;;;;;54.88;23.98;;;;;;;;;;8430961;28;20048;-78
2023/03/02 07:13:09;;;;;;;120.78;40.55;;;;;;;;;;8424472;28;20044;-78
2023/03/02 07:17:12;;;;;;;92.85;33.63;;;;;;;;;;8425520;28;20055;-78
2023/03/02 07:21:16;;;;;;;99.53;36.10;;;;;;;;;;8432770;28;20044;-78
2023/03/02 07:25:19;;;;;;;91.10;36.55;;;;;;;;;;8418763;28;20110;-80
2023/03/02 07:29:22;;;;;;;100.10;35.15;;;;;;;;;;8403536;28;20491;-92
2023/03/02 07:33:25;;;;;;;80.60;33.15;;;;;;;;;;8433933;28;20071;-80
2023/03/02 07:37:30;;;;;;;78.50;30.38;;;;;;;;;;8389637;28;20049;-80
2023/03/02 07:41:33;;;;;;;67.28;27.63;;;;;;;;;;8386476;28;20045;-81
2023/03/02 07:45:37;;;;;;;115.90;44.55;;;;;;;;;;8421649;28;20193;-79
2023/03/02 07:49:40;;;;;;;59.90;26.95;;;;;;;;;;8429004;28;20064;-85
2023/03/02 07:53:44;;;;;;;62.80;28.05;;;;;;;;;;8382706;28;20049;-80
2023/03/02 07:57:47;;;;;;;78.05;33.00;;;;;;;;;;8393893;28;20045;-81
2023/03/02 08:01:50;;;;;;;67.70;32.85;;;;;;;;;;8386385;28;20832;-80
2023/03/02 08:05:53;;;;;;;69.82;31.70;;;;;;;;;;8378694;28;20072;-84
2023/03/02 08:09:59;;;;;;;86.78;37.58;;;;;;;;;;8377367;28;20468;-80
2023/03/02 08:14:02;;;;;;;86.28;36.58;;;;;;;;;;8398510;28;20122;-79
2023/03/02 08:18:05;;;;;;;95.68;42.30;;;;;;;;;;8419502;28;20048;-78
2023/03/02 08:22:08;;;;;;;104.57;45.65;;;;;;;;;;8427292;28;20048;-80
2023/03/02 08:26:14;;;;;;;89.13;32.58;;;;;;;;;;8415086;28;20449;-80
2023/03/02 08:30:17;;;;;;;86.65;32.85;;;;;;;;;;8430559;28;20054;-79
2023/03/02 08:34:20;;;;;;;76.50;30.58;;;;;;;;;;8403669;28;20044;-80
2023/03/02 08:38:23;;;;;;;81.10;34.13;;;;;;;;;;8430384;28;20044;-79
2023/03/02 08:42:28;;;;;;;80.03;35.88;;;;;;;;;;8430694;28;20411;-80
2023/03/02 08:46:31;;;;;;;85.28;36.28;;;;;;;;;;8430812;28;20747;-78
2023/03/02 08:50:34;;;;;;;98.75;37.13;;;;;;;;;;8430745;28;20044;-79
2023/03/02 08:54:39;;;;;;;79.75;35.20;;;;;;;;;;8429985;28;20048;-80
2023/03/02 08:58:43;;;;;;;110.72;44.45;;;;;;;;;;8430179;28;20472;-81
2023/03/02 09:02:46;;;;;;;131.15;46.88;;;;;;;;;;8430152;28;20056;-80
2023/03/02 09:06:49;;;;;;;101.50;43.83;;;;;;;;;;8430295;28;20105;-81
2023/03/02 09:10:53;;;;;;;85.32;40.60;;;;;;;;;;8429923;28;20048;-79
2023/03/02 09:14:57;;;;;;;78.53;35.03;;;;;;;;;;8416890;28;20048;-80
2023/03/02 09:19:00;;;;;;;74.63;32.70;;;;;;;;;;8431508;28;20040;-81
2023/03/02 09:23:04;;;;;;;78.05;33.33;;;;;;;;;;8437127;28;20055;-82
2023/03/02 09:27:07;;;;;;;85.13;38.20;;;;;;;;;;8439648;28;20048;-79
2023/03/02 09:31:12;;;;;;;88.05;40.33;;;;;;;;;;8433849;28;20437;-80
2023/03/02 09:35:15;;;;;;;97.05;42.72;;;;;;;;;;8433607;28;20073;-81
2023/03/02 09:39:18;;;;;;;92.90;41.38;;;;;;;;;;8443960;28;20075;-78
2023/03/02 09:43:39;;;;;;;104.43;42.38;;;;;;;;;;8413256;28;20100;-79
2023/03/02 09:47:55;;;;;;;88.72;40.92;;;;;;;;;;8426099;28;20040;-80
2023/03/02 09:52:10;;;;;;;84.47;37.95;;;;;;;;;;8426573;28;20048;-79
2023/03/02 09:56:17;;;;;;;81.07;35.90;;;;;;;;;;8419525;28;20048;-79
2023/03/02 10:00:27;;;;;;;81.25;34.65;;;;;;;;;;8418284;28;20407;-78
2023/03/02 10:04:37;;;;;;;75.22;33.55;;;;;;;;;;8406782;28;20093;-79
2023/03/02 10:08:42;;;;;;;70.40;33.10;;;;;;;;;;8399989;28;20044;-78
2023/03/02 10:12:56;;;;;;;66.10;30.33;;;;;;;;;;8424313;28;20673;-79
2023/03/02 10:17:14;;;;;;;72.72;31.38;;;;;;;;;;8395594;28;20055;-78
2023/03/02 10:21:25;;;;;;;74.13;33.78;;;;;;;;;;8424259;28;20044;-78
2023/03/02 10:25:36;;;;;;;68.55;32.08;;;;;;;;;;8440630;28;20475;-78
2023/03/02 10:29:50;;;;;;;64.32;33.00;;;;;;;;;;8400381;28;20499;-79
2023/03/02 10:33:53;;;;;;;70.38;32.33;;;;;;;;;;8389704;28;20052;-80
2023/03/02 10:38:04;;;;;;;70.38;31.55;;;;;;;;;;8421275;28;20044;-79
2023/03/02 10:42:13;;;;;;;79.05;35.80;;;;;;;;;;8412775;28;20058;-78
2023/03/02 10:46:16;;;;;;;74.53;34.72;;;;;;;;;;8396280;28;20056;-81
2023/03/02 10:50:25;;;;;;;75.13;33.45;;;;;;;;;;8405447;28;20557;-79
2023/03/02 10:54:33;;;;;;;82.78;36.33;;;;;;;;;;8394975;28;20457;-80
2023/03/02 10:58:36;;;;;;;94.75;38.95;;;;;;;;;;8414867;28;20052;-80
2023/03/02 11:02:50;;;;;;;67.93;31.40;;;;;;;;;;8398224;28;20087;-81
2023/03/02 11:06:54;;;;;;;67.95;31.13;;;;;;;;;;8404646;28;20127;-79
2023/03/02 11:11:02;;;;;;;69.82;30.65;;;;;;;;;;8406256;28;20059;-80
2023/03/02 11:15:19;;;;;;;68.93;30.33;;;;;;;;;;8407189;28;20064;-80
2023/03/02 11:19:34;;;;;;;62.90;29.05;;;;;;;;;;8397116;28;20059;-81
2023/03/02 11:23:48;;;;;;;60.60;27.88;;;;;;;;;;8395325;28;20060;-79
2023/03/02 11:27:57;;;;;;;53.00;25.70;;;;;;;;;;8394566;28;20055;-79
2023/03/02 11:32:06;;;;;;;49.05;23.15;;;;;;;;;;8396537;28;20144;-80
2023/03/02 11:36:15;;;;;;;56.10;26.55;;;;;;;;;;8392696;28;20120;-78
2023/03/02 11:40:25;;;;;;;53.00;24.75;;;;;;;;;;8387131;28;20089;-80
2023/03/02 11:44:29;;;;;;;56.05;26.27;;;;;;;;;;8389695;28;20075;-80
2023/03/02 11:48:37;;;;;;;54.38;24.38;;;;;;;;;;8410506;28;20068;-80
2023/03/02 11:52:44;;;;;;;50.95;24.88;;;;;;;;;;8400246;28;20094;-80
2023/03/02 11:56:47;;;;;;;48.10;23.13;;;;;;;;;;8419153;28;20461;-81
2023/03/02 12:00:53;;;;;;;40.97;20.50;;;;;;;;;;8403695;28;20041;-80
2023/03/02 12:05:04;;;;;;;48.72;23.02;;;;;;;;;;8403984;28;20101;-81
2023/03/02 12:09:29;;;;;;;45.83;21.88;;;;;;;;;;8423048;28;20456;-81
2023/03/02 12:13:35;;;;;;;43.70;21.60;;;;;;;;;;8427332;28;20055;-79
2023/03/02 12:17:40;;;;;;;52.08;25.60;;;;;;;;;;8436982;28;20048;-80
2023/03/02 12:21:55;;;;;;;41.92;21.58;;;;;;;;;;8440158;28;20043;-78
2023/03/02 12:26:08;;;;;;;60.58;26.95;;;;;;;;;;8420363;28;20040;-80
2023/03/02 12:30:25;;;;;;;56.88;25.60;;;;;;;;;;8434220;28;20079;-80
2023/03/02 12:34:38;;;;;;;61.83;29.67;;;;;;;;;;8420928;28;20404;-80
2023/03/02 12:38:46;;;;;;;49.55;23.83;;;;;;;;;;8424283;28;20047;-81
2023/03/02 12:43:03;;;;;;;38.55;19.30;;;;;;;;;;8439315;28;20074;-79
2023/03/02 12:47:13;;;;;;;39.45;19.17;;;;;;;;;;8438377;28;20493;-80
2023/03/02 12:51:20;;;;;;;30.85;17.40;;;;;;;;;;8438803;28;20103;-80
2023/03/02 12:55:24;;;;;;;37.15;19.20;;;;;;;;;;8423156;28;20070;-80
2023/03/02 12:59:29;;;;;;;36.20;18.77;;;;;;;;;;8440155;28;20047;-79
2023/03/02 13:03:32;;;;;;;44.38;21.23;;;;;;;;;;8425453;28;20384;-79
2023/03/02 13:07:40;;;;;;;27.88;15.18;;;;;;;;;;8435698;28;20131;-85
2023/03/02 13:11:43;;;;;;;37.53;14.90;;;;;;;;;;8434378;28;20066;-79
2023/03/02 13:15:56;;;;;;;31.20;15.90;;;;;;;;;;8389856;28;20049;-79
2023/03/02 13:20:02;;;;;;;31.33;15.38;;;;;;;;;;8349275;28;20427;-80
2023/03/02 13:24:28;;;;;;;30.52;15.32;;;;;;;;;;8395574;28;20201;-82
2023/03/02 13:28:35;;;;;;;33.60;16.70;;;;;;;;;;8399753;28;20079;-79
2023/03/02 13:32:41;;;;;;;33.00;17.05;;;;;;;;;;8407682;28;20052;-80
2023/03/02 13:36:45;;;;;;;38.30;17.88;;;;;;;;;;8399492;28;20404;-80
2023/03/02 13:40:51;;;;;;;35.33;17.42;;;;;;;;;;8408602;28;20048;-82
2023/03/02 13:44:56;;;;;;;46.63;22.50;;;;;;;;;;8396724;28;20051;-80
2023/03/02 13:49:01;;;;;;;43.03;21.70;;;;;;;;;;8397480;28;20513;-78
2023/03/02 13:53:06;;;;;;;54.35;25.80;;;;;;;;;;8398592;28;20044;-80
2023/03/02 13:57:16;;;;;;;41.88;21.50;;;;;;;;;;8409562;28;20480;-83
2023/03/02 14:01:19;;;;;;;40.00;19.23;;;;;;;;;;8409657;28;20041;-80
2023/03/02 14:05:25;;;;;;;35.58;16.88;;;;;;;;;;8374113;28;20505;-80
2023/03/02 14:09:28;;;;;;;33.15;16.02;;;;;;;;;;8406658;28;20058;-80
2023/03/02 14:13:46;;;;;;;23.98;11.98;;;;;;;;;;8388571;28;20055;-80
2023/03/02 14:17:49;;;;;;;27.60;12.43;;;;;;;;;;8401309;28;20056;-79
2023/03/02 14:21:52;;;;;;;30.20;14.15;;;;;;;;;;8412419;28;20045;-79
2023/03/02 14:25:58;;;;;;;28.85;12.73;;;;;;;;;;8384592;28;20449;-83
2023/03/02 14:30:03;;;;;;;33.33;15.32;;;;;;;;;;8398844;28;20071;-80
2023/03/02 14:34:09;;;;;;;27.10;14.27;;;;;;;;;;8399665;28;20052;-81
2023/03/02 14:38:12;;;;;;;36.90;17.58;;;;;;;;;;8388231;28;20109;-91
2023/03/02 14:42:17;;;;;;;26.38;12.52;;;;;;;;;;8397907;28;20407;-80
2023/03/02 14:46:22;;;;;;;25.10;12.32;;;;;;;;;;8397706;28;20045;-78
2023/03/02 14:50:26;;;;;;;27.42;12.13;;;;;;;;;;8385284;28;20480;-83
2023/03/02 14:54:38;;;;;;;31.85;13.80;;;;;;;;;;8392345;28;20050;-79
2023/03/02 14:58:41;;;;;;;36.25;15.60;;;;;;;;;;8382132;28;20052;-80
2023/03/02 15:02:47;;;;;;;52.17;20.73;;;;;;;;;;8384827;28;20514;-82
2023/03/02 15:06:50;;;;;;;29.02;14.07;;;;;;;;;;8397013;28;20056;-82
2023/03/02 15:10:53;;;;;;;35.40;13.90;;;;;;;;;;8389507;28;20073;-81
2023/03/02 15:14:57;;;;;;;32.92;16.70;;;;;;;;;;8379413;28;20045;-81
2023/03/02 15:19:02;;;;;;;34.13;16.80;;;;;;;;;;8395251;28;20040;-80
2023/03/02 15:23:05;;;;;;;29.23;13.20;;;;;;;;;;8396073;28;20044;-80
2023/03/02 15:27:08;;;;;;;32.15;15.13;;;;;;;;;;8395552;28;20059;-79
2023/03/02 15:31:14;;;;;;;36.97;16.75;;;;;;;;;;8392418;28;20682;-80
2023/03/02 15:35:19;;;;;;;32.72;13.82;;;;;;;;;;8373711;28;20074;-85
2023/03/02 15:39:22;;;;;;;35.10;15.60;;;;;;;;;;8380014;28;20046;-78
2023/03/02 15:43:26;;;;;;;30.33;14.30;;;;;;;;;;8408523;28;20053;-81
2023/03/02 15:47:29;;;;;;;26.23;12.32;;;;;;;;;;8398349;28;20414;-80
2023/03/02 15:51:33;;;;;;;32.25;15.20;;;;;;;;;;8404442;28;20055;-81
2023/03/02 15:55:41;;;;;;;20.85;11.20;;;;;;;;;;8384973;28;20036;-86
2023/03/02 15:59:45;;;;;;;28.15;13.32;;;;;;;;;;8404079;28;20068;-79
2023/03/02 16:03:47;;;;;;;20.98;11.57;;;;;;;;;;8394890;28;20045;-84
2023/03/02 16:07:52;;;;;;;27.50;12.65;;;;;;;;;;8394413;28;20158;-79
2023/03/02 16:11:56;;;;;;;30.92;14.55;;;;;;;;;;8394932;28;20048;-79
2023/03/02 16:16:02;;;;;;;27.00;14.07;;;;;;;;;;8371364;28;20114;-79
2023/03/02 16:20:06;;;;;;;26.67;12.48;;;;;;;;;;8384358;28;20067;-81
2023/03/02 16:24:11;;;;;;;28.33;14.10;;;;;;;;;;8379305;28;20138;-80
2023/03/02 16:28:16;;;;;;;32.90;15.25;;;;;;;;;;8386347;28;20151;-80
2023/03/02 16:32:22;;;;;;;42.90;17.38;;;;;;;;;;8394242;28;20048;-79
2023/03/02 16:36:27;;;;;;;46.33;16.88;;;;;;;;;;8381112;28;20056;-80
2023/03/02 16:40:33;;;;;;;27.13;11.90;;;;;;;;;;8388017;28;20102;-82
2023/03/02 16:44:36;;;;;;;32.33;14.50;;;;;;;;;;8380145;28;20040;-82
2023/03/02 16:48:40;;;;;;;43.00;17.02;;;;;;;;;;8376239;28;20060;-81
2023/03/02 16:52:44;;;;;;;38.42;17.50;;;;;;;;;;8373592;28;20070;-79
2023/03/02 16:56:49;;;;;;;48.50;20.25;;;;;;;;;;8379829;28;20048;-79
2023/03/02 17:00:53;;;;;;;44.78;21.55;;;;;;;;;;8393535;28;20048;-81
2023/03/02 17:04:59;;;;;;;45.53;19.20;;;;;;;;;;8385776;28;20052;-84
2023/03/02 17:09:02;;;;;;;48.17;20.58;;;;;;;;;;8411638;28;20403;-83
2023/03/02 17:13:10;;;;;;;54.67;23.02;;;;;;;;;;8401370;28;20048;-83
2023/03/02 17:17:15;;;;;;;62.78;25.02;;;;;;;;;;8379397;28;20094;-77
2023/03/02 17:21:18;;;;;;;48.53;20.83;;;;;;;;;;8403718;28;20079;-82
2023/03/02 17:25:22;;;;;;;40.90;18.25;;;;;;;;;;8388819;28;20044;-81
2023/03/02 17:29:28;;;;;;;104.43;32.67;;;;;;;;;;8398378;28;20056;-80
2023/03/02 17:33:32;;;;;;;35.13;17.42;;;;;;;;;;8413155;28;20046;-79
2023/03/02 17:37:36;;;;;;;32.72;14.90;;;;;;;;;;8414059;28;20047;-80
2023/03/02 17:41:40;;;;;;;38.72;15.55;;;;;;;;;;8411400;28;20521;-79
2023/03/02 17:45:45;;;;;;;34.03;16.15;;;;;;;;;;8415366;28;20059;-78
2023/03/02 17:49:49;;;;;;;41.15;18.73;;;;;;;;;;8415038;28;20048;-79
2023/03/02 17:53:55;;;;;;;41.15;17.85;;;;;;;;;;8407177;28;20051;-77
2023/03/02 17:58:00;;;;;;;323.25;102.55;;;;;;;;;;8414134;28;20044;-78
2023/03/02 18:02:10;;;;;;;64.78;30.63;;;;;;;;;;8425682;28;20142;-79
2023/03/02 18:06:16;;;;;;;71.55;35.42;;;;;;;;;;8415166;28;20050;-80
2023/03/02 18:10:24;;;;;;;57.25;24.08;;;;;;;;;;8420287;28;20080;-78
2023/03/02 18:14:28;;;;;;;127.10;39.65;;;;;;;;;;8410084;28;20105;-86
2023/03/02 18:18:34;;;;;;;71.25;28.85;;;;;;;;;;8418348;28;20048;-81
2023/03/02 18:22:38;;;;;;;75.80;28.42;;;;;;;;;;8424471;28;20093;-79
2023/03/02 18:26:43;;;;;;;116.55;44.38;;;;;;;;;;8415857;28;20509;-80
2023/03/02 18:30:48;;;;;;;122.32;42.78;;;;;;;;;;8424734;28;20054;-79
2023/03/02 18:34:59;;;;;;;52.70;19.92;;;;;;;;;;8425171;28;20044;-79
2023/03/02 18:39:04;;;;;;;61.40;26.35;;;;;;;;;;8409548;28;20123;-78
2023/03/02 18:43:09;;;;;;;61.90;25.80;;;;;;;;;;8409940;28;20085;-79
2023/03/02 18:47:16;;;;;;;58.22;27.00;;;;;;;;;;8393593;28;20687;-78
2023/03/02 18:51:31;;;;;;;62.42;25.05;;;;;;;;;;8411543;28;20043;-79
2023/03/02 18:55:35;;;;;;;60.35;27.92;;;;;;;;;;8408027;28;20075;-80
2023/03/02 18:59:40;;;;;;;150.55;45.60;;;;;;;;;;8432874;28;20040;-79
2023/03/02 19:03:45;;;;;;;35.40;15.63;;;;;;;;;;8416847;28;20548;-80
2023/03/02 19:07:52;;;;;;;48.08;19.35;;;;;;;;;;8419918;28;20048;-80
2023/03/02 19:11:57;;;;;;;61.65;24.35;;;;;;;;;;8432319;28;20036;-80
2023/03/02 19:16:06;;;;;;;67.78;24.67;;;;;;;;;;8432484;28;20082;-80
2023/03/02 19:20:19;;;;;;;54.97;21.75;;;;;;;;;;8424546;28;20054;-90
2023/03/02 19:24:28;;;;;;;56.28;23.90;;;;;;;;;;8419338;28;20486;-78
2023/03/02 19:28:33;;;;;;;76.40;27.20;;;;;;;;;;8389526;28;20063;-77
2023/03/02 19:32:39;;;;;;;87.53;30.25;;;;;;;;;;8418759;28;20040;-80
2023/03/02 19:36:45;;;;;;;95.97;36.13;;;;;;;;;;8419287;28;20052;-78
2023/03/02 19:40:52;;;;;;;51.17;21.83;;;;;;;;;;8419139;28;20750;-79
2023/03/02 19:44:58;;;;;;;147.52;49.65;;;;;;;;;;8432552;28;20048;-77
2023/03/02 19:49:04;;;;;;;31.73;15.68;;;;;;;;;;8432322;28;20052;-79
2023/03/02 19:53:13;;;;;;;298.08;88.75;;;;;;;;;;8425033;28;20066;-79
2023/03/02 19:57:18;;;;;;;151.85;52.55;;;;;;;;;;8419348;28;20105;-79
2023/03/02 20:01:30;;;;;;;115.97;36.25;;;;;;;;;;8423020;28;20043;-79
2023/03/02 20:05:35;;;;;;;44.95;17.63;;;;;;;;;;8428799;28;20044;-79
2023/03/02 20:09:42;;;;;;;51.92;21.60;;;;;;;;;;8413560;28;20507;-78
2023/03/02 20:13:50;;;;;;;188.77;52.53;;;;;;;;;;8427612;28;20032;-80
2023/03/02 20:17:53;;;;;;;135.82;44.70;;;;;;;;;;8430359;28;20048;-80
2023/03/02 20:22:02;;;;;;;123.22;44.33;;;;;;;;;;8431281;28;20097;-77
2023/03/02 20:26:07;;;;;;;107.72;42.55;;;;;;;;;;8430281;28;20047;-80
2023/03/02 20:30:19;;;;;;;82.75;30.95;;;;;;;;;;8430767;28;20487;-78
2023/03/02 20:34:24;;;;;;;150.52;48.63;;;;;;;;;;8431052;28;20126;-78
2023/03/02 20:38:31;;;;;;;69.50;26.27;;;;;;;;;;8431191;28;20095;-77
2023/03/02 20:42:36;;;;;;;80.32;33.65;;;;;;;;;;8417639;28;20089;-78
2023/03/02 20:46:46;;;;;;;81.18;34.40;;;;;;;;;;8430741;28;20051;-79
2023/03/02 20:50:51;;;;;;;54.42;21.38;;;;;;;;;;8430573;28;20075;-80
2023/03/02 20:54:55;;;;;;;61.75;21.85;;;;;;;;;;8430332;28;20040;-79
2023/03/02 20:59:00;;;;;;;54.15;21.80;;;;;;;;;;8430131;28;20064;-80
2023/03/02 21:03:08;;;;;;;64.85;28.30;;;;;;;;;;8430268;28;20078;-78
2023/03/02 21:07:13;;;;;;;51.95;22.58;;;;;;;;;;8430250;28;20048;-79
2023/03/02 21:11:19;;;;;;;57.20;25.67;;;;;;;;;;8431626;28;20048;-79
2023/03/02 21:15:26;;;;;;;195.38;56.03;;;;;;;;;;8429571;28;20406;-79
2023/03/02 21:19:32;;;;;;;117.28;34.95;;;;;;;;;;8429989;28;20121;-79
2023/03/02 21:23:36;;;;;;;112.32;33.90;;;;;;;;;;8412681;28;20549;-79
2023/03/02 21:27:40;;;;;;;73.32;26.67;;;;;;;;;;8421866;28;20113;-81
2023/03/02 21:31:45;;;;;;;53.17;25.50;;;;;;;;;;8425895;28;20121;-78
2023/03/02 21:35:49;;;;;;;58.20;21.98;;;;;;;;;;8429175;28;20143;-80
2023/03/02 21:39:53;;;;;;;108.15;37.92;;;;;;;;;;8429106;28;20044;-78
2023/03/02 21:43:57;;;;;;;61.95;23.55;;;;;;;;;;8429622;28;20480;-78
2023/03/02 21:48:00;;;;;;;62.92;25.90;;;;;;;;;;8429108;28;20127;-79
2023/03/02 21:52:06;;;;;;;48.63;20.42;;;;;;;;;;8428752;28;20043;-78
2023/03/02 21:56:10;;;;;;;43.88;20.13;;;;;;;;;;8420190;28;20046;-79
2023/03/02 22:00:20;;;;;;;38.90;17.55;;;;;;;;;;8428146;28;20119;-79
2023/03/02 22:04:23;;;;;;;44.67;17.75;;;;;;;;;;8429651;28;20543;-78
2023/03/02 22:08:28;;;;;;;39.35;18.85;;;;;;;;;;8428574;28;20066;-78
2023/03/02 22:12:31;;;;;;;30.75;14.32;;;;;;;;;;8428666;28;20044;-77
2023/03/02 22:16:37;;;;;;;43.03;19.35;;;;;;;;;;8428792;28;20406;-78
2023/03/02 22:20:42;;;;;;;44.25;20.02;;;;;;;;;;8428840;28;20044;-77
2023/03/02 22:24:49;;;;;;;43.90;18.75;;;;;;;;;;8428483;28;20047;-78
2023/03/02 22:28:52;;;;;;;41.75;18.98;;;;;;;;;;8433808;28;20131;-79
2023/03/02 22:32:55;;;;;;;46.03;20.33;;;;;;;;;;8421673;28;20043;-80
2023/03/02 22:37:03;;;;;;;40.70;18.27;;;;;;;;;;8435385;28;20051;-79
2023/03/02 22:41:14;;;;;;;37.35;16.48;;;;;;;;;;8434726;28;20046;-79
2023/03/02 22:45:21;;;;;;;44.95;19.08;;;;;;;;;;8434762;28;20154;-77
2023/03/02 22:49:24;;;;;;;43.05;18.52;;;;;;;;;;8417416;28;20056;-79
2023/03/02 22:53:29;;;;;;;57.70;22.48;;;;;;;;;;8419536;28;20052;-79
2023/03/02 22:57:35;;;;;;;36.08;15.38;;;;;;;;;;8433902;28;20044;-81
2023/03/02 23:01:40;;;;;;;33.42;14.77;;;;;;;;;;8434334;28;20047;-78
2023/03/02 23:05:47;;;;;;;33.97;13.35;;;;;;;;;;8434154;28;20498;-78
2023/03/02 23:09:50;;;;;;;37.75;15.38;;;;;;;;;;8434060;28;20126;-78
2023/03/02 23:13:55;;;;;;;35.50;13.98;;;;;;;;;;8433153;28;20040;-80
2023/03/02 23:17:59;;;;;;;30.80;14.40;;;;;;;;;;8426234;28;20048;-78
2023/03/02 23:22:02;;;;;;;29.40;13.77;;;;;;;;;;8420498;28;20040;-78
2023/03/02 23:26:05;;;;;;;56.90;18.90;;;;;;;;;;8433157;28;20044;-82
2023/03/02 23:30:10;;;;;;;34.15;14.50;;;;;;;;;;8432169;28;20044;-79
2023/03/02 23:34:14;;;;;;;32.45;12.55;;;;;;;;;;8420018;28;20479;-83
2023/03/02 23:38:17;;;;;;;32.30;13.63;;;;;;;;;;8431912;28;20101;-79
2023/03/02 23:42:20;;;;;;;28.90;13.40;;;;;;;;;;8432810;28;20127;-81
2023/03/02 23:46:24;;;;;;;32.42;13.60;;;;;;;;;;8432457;28;20070;-79